Latest Weather Observations for Sheffield

IDT60801

Issued at 1:31 pm EST Thursday 2 July 2015 (issued every 30 minutes, with the page automatically refreshed every 10 minutes)

About weather observations | Map of weather stations | Latest weather observations for TAS | Other Formats
Station Details ID: 091291 Name: SHEFFIELD SCHOOL FARM Lat: -41.39 Lon: 146.32 Height: 294.2 m
Data from the previous 72 hours. | See also: Recent months at Sheffield
Date/Time
EST
Temp
°C
App
Temp
°C
Dew
Point
Rel
Hum
%
Delta-T
°C
Wind Press
QNH
hPa
Press
MSL
hPa
Rain
since 9 am
mm
Dir
 
Spd
km/h
Gust
km/h
Spd
kts
Gust
kts
02/01:30pm - - - - - WSW 17 26 9 14 1015.9 1016.5 0.0
02/01:00pm - - - - - WNW 13 30 7 16 1015.2 1015.9 0.0
02/12:30pm - - - - - NW 11 20 6 11 1015.3 1016.0 0.0
02/12:00pm - - - - - WSW 19 33 10 18 1015.1 1015.8 0.0
02/11:30am - - - - - W 15 22 8 12 1014.8 1015.4 0.0
02/11:00am - - - - - WNW 17 24 9 13 1014.8 1015.4 0.0
02/10:30am - - - - - WSW 17 20 9 11 1014.6 1015.2 0.0
02/10:00am - - - - - W 22 35 12 19 1013.9 1014.5 0.0
02/09:30am - - - - - WNW 13 20 7 11 1013.1 1013.7 0.0
02/09:00am - - - - - WNW 13 19 7 10 1012.8 1013.4 9.8
02/08:30am - - - - - WNW 11 17 6 9 1012.6 1013.2 9.8
02/08:00am - - - - - WNW 15 20 8 11 1012.0 1012.5 9.8
02/07:30am - - - - - WNW 15 19 8 10 1011.8 1012.4 9.8
02/07:00am - - - - - W 22 32 12 17 1011.8 1012.4 9.6
02/06:30am - - - - - NW 15 19 8 10 1011.4 1012.0 9.2
02/06:00am - - - - - W 15 19 8 10 1010.7 1011.3 9.2
02/05:31am - - - - - WSW 30 48 16 26 1011.0 1011.6 7.6
02/05:30am - - - - - WSW 32 48 17 26 1010.9 1011.5 7.6
02/05:24am - - - - - WSW 22 48 12 26 1010.6 1011.2 6.8
02/05:23am - - - - - WSW 20 43 11 23 1010.6 1011.2 6.6
02/05:00am - - - - - NW 13 19 7 10 1009.8 1010.4 6.0
02/04:30am - - - - - WNW 13 20 7 11 1009.9 1010.5 6.0
02/04:00am - - - - - W 22 37 12 20 1009.7 1010.3 5.6
02/03:51am - - - - - SW 37 56 20 30 1009.8 1010.4 5.2
02/03:48am - - - - - WSW 37 56 20 30 1010.1 1010.7 5.0
02/03:41am - - - - - W 28 48 15 26 1009.6 1010.2 4.8
02/03:30am - - - - - WSW 28 43 15 23 1009.5 1010.1 4.8
02/03:00am - - - - - WSW 22 30 12 16 1009.3 1009.8 4.8
02/02:30am - - - - - W 24 39 13 21 1008.8 1009.3 4.8
02/02:00am - - - - - W 22 32 12 17 1008.8 1009.3 4.8
02/01:30am - - - - - W 26 43 14 23 1008.7 1009.2 4.8
02/01:10am - - - - - W 28 46 15 25 1008.9 1009.4 4.6
02/01:00am - - - - - W 24 37 13 20 1008.7 1009.2 4.6
02/12:30am - - - - - W 24 41 13 22 1008.9 1009.4 4.6
02/12:00am - - - - - W 28 41 15 22 1008.2 1008.8 4.6
 
Date/Time
EST
Temp
°C
App
Temp
°C
Dew
Point
Rel
Hum
%
Delta-T
°C
Wind Press
QNH
hPa
Press
MSL
hPa
Rain
since 9 am
mm
Dir
 
Spd
km/h
Gust
km/h
Spd
kts
Gust
kts
01/11:30pm - - - - - WSW 32 63 17 34 1008.5 1009.0 4.6
01/11:19pm - - - - - W 28 50 15 27 1008.4 1008.9 4.6
01/11:00pm - - - - - WNW 22 39 12 21 1007.9 1008.5 4.6
01/10:30pm - - - - - WNW 17 26 9 14 1008.0 1008.6 4.6
01/10:00pm - - - - - W 22 32 12 17 1007.9 1008.5 4.6
01/09:30pm - - - - - W 22 33 12 18 1009.1 1009.6 4.6
01/09:00pm - - - - - W 35 57 19 31 1009.5 1010.1 4.4
01/08:56pm - - - - - W 28 52 15 28 1009.6 1010.2 4.4
01/08:30pm - - - - - NW 32 41 17 22 1008.6 1009.1 1.0
01/08:00pm - - - - - NW 35 54 19 29 1008.8 1009.3 0.6
01/07:45pm - - - - - NW 28 46 15 25 1009.3 1009.8 0.6
01/07:30pm - - - - - NW 26 37 14 20 1009.7 1010.3 0.6
01/07:00pm - - - - - NW 22 33 12 18 1010.6 1011.2 0.6
01/06:30pm - - - - - NW 26 35 14 19 1011.5 1012.1 0.6
01/06:00pm - - - - - NW 24 33 13 18 1012.1 1012.6 0.6
01/05:30pm - - - - - NW 24 35 13 19 1012.5 1013.1 0.6
01/05:00pm - - - - - NW 22 30 12 16 1012.9 1013.5 0.6
01/04:30pm - - - - - NW 26 35 14 19 1013.2 1013.8 0.6
01/04:02pm - - - - - WNW 35 54 19 29 1013.6 1014.2 0.6
01/04:00pm - - - - - WNW 37 54 20 29 1013.7 1014.3 0.6
01/03:44pm - - - - - WNW 28 54 15 29 1014.1 1014.7 0.4
01/03:30pm - - - - - WNW 28 39 15 21 1014.2 1014.8 0.0
01/03:10pm - - - - - NW 30 56 16 30 1014.3 1014.9 0.0
01/03:00pm - - - - - NW 33 48 18 26 1014.3 1014.9 0.0
01/02:30pm - - - - - NW 28 43 15 23 1014.6 1015.2 0.0
01/02:00pm - - - - - NW 26 39 14 21 1015.4 1016.1 0.0
01/01:30pm - - - - - NW 24 35 13 19 1016.2 1016.8 0.0
01/01:00pm - - - - - NW 28 39 15 21 1017.0 1017.6 0.0
01/12:30pm - - - - - NW 24 35 13 19 1017.5 1018.1 0.0
01/12:00pm - - - - - NW 19 28 10 15 1018.2 1018.9 0.0
01/11:30am - - - - - NW 22 33 12 18 1019.2 1019.8 0.0
01/11:00am - - - - - NW 19 26 10 14 1020.0 1020.6 0.0
01/10:30am - - - - - NW 19 24 10 13 1020.3 1020.9 0.0
01/10:00am - - - - - NNW 15 19 8 10 1020.8 1021.5 0.0
01/09:30am - - - - - NW 17 20 9 11 1020.9 1021.5 0.0
01/09:00am - - - - - WNW 17 20 9 11 1021.1 1021.7 0.2
01/08:30am - - - - - WNW 11 15 6 8 1021.1 1021.7 0.0
01/08:00am - - - - - NNW 9 11 5 6 1021.3 1021.9 0.0
01/07:30am - - - - - N 7 11 4 6 1021.5 1022.1 0.0
01/07:00am - - - - - NNW 6 9 3 5 1021.6 1022.2 0.0
01/06:30am - - - - - NNW 7 11 4 6 1021.8 1022.4 0.0
01/06:00am - - - - - N 4 6 2 3 1022.0 1022.6 0.0
01/05:30am - - - - - NW 6 9 3 5 1022.1 1022.7 0.0
01/05:00am - - - - - NNW 9 11 5 6 1022.5 1023.1 0.0
01/04:30am - - - - - NW 6 7 3 4 1022.5 1023.1 0.0
01/04:00am - - - - - NW 6 7 3 4 1022.7 1023.2 0.0
01/03:30am - - - - - NNW 9 11 5 6 1022.9 1023.4 0.0
01/03:00am - - - - - NNW 7 11 4 6 1023.1 1023.6 0.0
01/02:30am - - - - - NW 9 11 5 6 1023.3 1023.8 0.0
01/02:00am - - - - - NNW 9 11 5 6 1023.3 1023.8 0.0
01/01:30am - - - - - NNW 9 17 5 9 1023.2 1023.7 0.0
01/01:00am - - - - - CALM 0 0 0 0 1023.3 1023.8 0.0
01/12:30am - - - - - E 4 7 2 4 1023.5 1024.1 0.0
01/12:00am - - - - - E 6 9 3 5 1023.7 1024.3 0.0
 
Date/Time
EST
Temp
°C
App
Temp
°C
Dew
Point
Rel
Hum
%
Delta-T
°C
Wind Press
QNH
hPa
Press
MSL
hPa
Rain
since 9 am
mm
Dir
 
Spd
km/h
Gust
km/h
Spd
kts
Gust
kts
30/11:30pm - - - - - SSW 7 17 4 9 1023.7 1024.3 0.0
30/11:00pm - - - - - WSW 11 17 6 9 1023.7 1024.3 0.0
30/10:30pm - - - - - WSW 7 9 4 5 1024.0 1024.6 0.0
30/10:00pm - - - - - WSW 9 13 5 7 1024.0 1024.6 0.0
30/09:30pm - - - - - SSW 4 6 2 3 1023.9 1024.5 0.0
30/09:00pm - - - - - WNW 2 9 1 5 1024.0 1024.6 0.0
30/08:30pm - - - - - WSW 7 13 4 7 1024.1 1024.7 0.0
30/08:00pm - - - - - SW 4 7 2 4 1024.0 1024.6 0.0
30/07:30pm - - - - - NW 7 11 4 6 1024.0 1024.6 0.0
30/07:00pm - - - - - NW 7 11 4 6 1023.9 1024.5 0.0
30/06:30pm - - - - - WNW 4 7 2 4 1023.7 1024.3 0.0
30/06:00pm - - - - - NNW 6 7 3 4 1023.6 1024.2 0.0
30/05:30pm - - - - - W 9 15 5 8 1023.4 1023.9 0.0
30/05:00pm - - - - - W 9 13 5 7 1023.2 1023.7 0.0
30/04:30pm - - - - - W 11 17 6 9 1023.2 1023.7 0.0
30/04:00pm - - - - - W 11 19 6 10 1023.0 1023.5 0.0
30/03:30pm - - - - - W 9 15 5 8 1023.0 1023.5 0.0
30/03:00pm - - - - - NW 9 13 5 7 1022.9 1023.4 0.0
30/02:30pm - - - - - N 11 15 6 8 1022.9 1023.4 0.0
30/02:00pm - - - - - N 11 15 6 8 1023.0 1023.5 0.0
30/01:30pm - - - - - NNW 9 13 5 7 1023.3 1023.8 0.0
30/01:00pm - - - - - NNW 4 6 2 3 1023.6 1024.2 0.0
30/12:30pm - - - - - CALM 0 0 0 0 1023.9 1024.5 0.0
30/12:00pm - - - - - SE 2 6 1 3 1024.3 1024.9 0.0
30/11:30am - - - - - CALM 0 0 0 0 1024.8 1025.4 0.0
30/11:00am - - - - - CALM 0 4 0 2 1025.3 1025.9 0.0
30/10:30am - - - - - CALM 0 0 0 0 1025.4 1026.0 0.0
30/10:00am - - - - - CALM 0 0 0 0 1025.4 1026.0 0.0
30/09:30am - - - - - CALM 0 2 0 1 1025.3 1025.9 0.0
30/09:00am - - - - - CALM 0 4 0 2 1025.2 1025.8 0.0
30/08:30am - - - - - CALM 0 4 0 2 1025.1 1025.7 0.0
30/08:00am - - - - - NNW 9 9 5 5 1024.9 1025.5 0.0
30/07:30am - - - - - N 7 9 4 5 1024.8 1025.4 0.0
30/07:00am - - - - - N 7 7 4 4 1024.6 1025.2 0.0
30/06:30am - - - - - NNW 2 6 1 3 1024.5 1025.1 0.0
30/06:00am - - - - - WNW 2 6 1 3 1024.4 1025.0 0.0
30/05:30am - - - - - CALM 0 0 0 0 1024.4 1025.0 0.0
30/05:00am - - - - - CALM 0 0 0 0 1024.5 1025.1 0.0
30/04:30am - - - - - NW 4 6 2 3 1024.5 1025.1 0.0
30/04:00am - - - - - N 9 11 5 6 1024.7 1025.3 0.0
30/03:30am - - - - - N 9 13 5 7 1024.6 1025.2 0.0
30/03:00am - - - - - NNW 4 6 2 3 1024.7 1025.3 0.0
30/02:30am - - - - - N 2 4 1 2 1024.8 1025.4 0.0
30/02:00am - - - - - NNW 4 6 2 3 1025.1 1025.7 0.0
30/01:30am - - - - - CALM 0 0 0 0 1025.3 1025.9 0.0
30/01:00am - - - - - CALM 0 0 0 0 1025.4 1026.0 0.0
30/12:30am - - - - - WNW 2 4 1 2 1025.5 1026.1 0.0
30/12:00am - - - - - NNW 7 9 4 5 1025.5 1026.1 0.0
 
Date/Time
EST
Temp
°C
App
Temp
°C
Dew
Point
Rel
Hum
%
Delta-T
°C
Wind Press
QNH
hPa
Press
MSL
hPa
Rain
since 9 am
mm
Dir
 
Spd
km/h
Gust
km/h
Spd
kts
Gust
kts
29/11:30pm - - - - - N 7 7 4 4 1025.6 1026.2 0.0
29/11:00pm - - - - - NNW 6 7 3 4 1025.6 1026.2 0.0
29/10:30pm - - - - - NW 6 9 3 5 1025.8 1026.4 0.0
29/10:00pm - - - - - NW 7 11 4 6 1026.0 1026.6 0.0
29/09:30pm - - - - - WNW 6 7 3 4 1026.0 1026.6 0.0
29/09:00pm - - - - - WSW 11 15 6 8 1026.0 1026.6 0.0
29/08:30pm - - - - - W 15 20 8 11 1026.3 1026.8 0.0
29/08:00pm - - - - - W 11 19 6 10 1026.4 1027.0 0.0
29/07:30pm - - - - - WNW 19 26 10 14 1026.1 1026.7 0.0
29/07:00pm - - - - - WNW 15 20 8 11 1026.4 1027.0 0.0
29/06:30pm - - - - - W 17 20 9 11 1026.3 1026.8 0.0
29/06:00pm - - - - - WNW 13 19 7 10 1026.3 1026.8 0.0
29/05:30pm - - - - - W 9 15 5 8 1026.3 1026.8 0.0
29/05:00pm - - - - - W 11 19 6 10 1026.1 1026.7 0.0
29/04:30pm - - - - - W 11 20 6 11 1026.4 1027.0 0.0
29/04:00pm - - - - - WSW 11 17 6 9 1026.5 1027.1 0.0
29/03:30pm - - - - - WSW 15 22 8 12 1026.4 1027.0 0.0
29/03:00pm - - - - - W 19 30 10 16 1026.0 1026.6 0.0
29/02:30pm - - - - - W 15 22 8 12 1026.1 1026.7 0.0
29/02:00pm - - - - - WSW 17 22 9 12 1026.1 1026.7 0.0

Other Formats:

Comma delimited format used in spreadsheet applications
http://www.bom.gov.au/fwo/IDT60801/IDT60801.94955.axf

JavaScript Object Notation format (JSON) in row-major order
http://www.bom.gov.au/fwo/IDT60801/IDT60801.94955.json